sensor_id;sensor_type;location;lat;lon;timestamp;P1;durP1;ratioP1;P2;durP2;ratioP2
75887;SDS011;64562;55.662;37.300;2022-12-11T00:02:20;5.53;;;2.30;;
75887;SDS011;64562;55.662;37.300;2022-12-11T00:04:46;5.07;;;2.58;;
75887;SDS011;64562;55.662;37.300;2022-12-11T00:07:13;4.70;;;2.40;;
75887;SDS011;64562;55.662;37.300;2022-12-11T00:09:41;5.97;;;2.88;;
75887;SDS011;64562;55.662;37.300;2022-12-11T00:12:07;4.85;;;2.97;;
75887;SDS011;64562;55.662;37.300;2022-12-11T00:14:34;6.63;;;2.45;;
75887;SDS011;64562;55.662;37.300;2022-12-11T00:17:01;3.67;;;2.13;;
75887;SDS011;64562;55.662;37.300;2022-12-11T00:19:29;4.47;;;2.58;;
75887;SDS011;64562;55.662;37.300;2022-12-11T00:21:55;3.13;;;2.15;;
75887;SDS011;64562;55.662;37.300;2022-12-11T00:24:22;5.15;;;2.50;;
75887;SDS011;64562;55.662;37.300;2022-12-11T00:26:49;3.72;;;2.40;;
75887;SDS011;64562;55.662;37.300;2022-12-11T00:29:15;3.70;;;2.28;;
75887;SDS011;64562;55.662;37.300;2022-12-11T00:31:42;3.58;;;2.10;;
75887;SDS011;64562;55.662;37.300;2022-12-11T00:34:09;4.07;;;2.22;;
75887;SDS011;64562;55.662;37.300;2022-12-11T00:36:37;3.63;;;1.90;;
75887;SDS011;64562;55.662;37.300;2022-12-11T00:39:04;3.33;;;2.40;;
75887;SDS011;64562;55.662;37.300;2022-12-11T00:41:30;3.42;;;2.20;;
75887;SDS011;64562;55.662;37.300;2022-12-11T00:43:57;4.70;;;2.70;;
75887;SDS011;64562;55.662;37.300;2022-12-11T00:46:24;3.38;;;2.08;;
75887;SDS011;64562;55.662;37.300;2022-12-11T00:48:50;3.35;;;2.38;;
75887;SDS011;64562;55.662;37.300;2022-12-11T00:51:18;3.67;;;2.10;;
75887;SDS011;64562;55.662;37.300;2022-12-11T00:53:46;3.80;;;2.10;;
75887;SDS011;64562;55.662;37.300;2022-12-11T00:56:14;4.07;;;2.20;;
75887;SDS011;64562;55.662;37.300;2022-12-11T00:58:40;3.25;;;2.03;;
75887;SDS011;64562;55.662;37.300;2022-12-11T01:01:07;5.18;;;2.20;;
75887;SDS011;64562;55.662;37.300;2022-12-11T01:03:34;3.85;;;1.88;;
75887;SDS011;64562;55.662;37.300;2022-12-11T01:06:01;3.88;;;2.30;;
75887;SDS011;64562;55.662;37.300;2022-12-11T01:08:27;3.55;;;2.55;;
75887;SDS011;64562;55.662;37.300;2022-12-11T01:11:01;3.85;;;2.10;;
75887;SDS011;64562;55.662;37.300;2022-12-11T01:13:27;3.55;;;2.25;;
75887;SDS011;64562;55.662;37.300;2022-12-11T01:15:53;3.97;;;2.47;;
75887;SDS011;64562;55.662;37.300;2022-12-11T01:18:20;3.88;;;2.50;;
75887;SDS011;64562;55.662;37.300;2022-12-11T01:20:46;3.53;;;1.90;;
75887;SDS011;64562;55.662;37.300;2022-12-11T01:23:13;4.10;;;2.58;;
75887;SDS011;64562;55.662;37.300;2022-12-11T01:25:40;3.85;;;1.95;;
75887;SDS011;64562;55.662;37.300;2022-12-11T01:28:08;3.42;;;2.20;;
75887;SDS011;64562;55.662;37.300;2022-12-11T01:30:35;3.75;;;2.30;;
75887;SDS011;64562;55.662;37.300;2022-12-11T01:33:02;4.28;;;2.30;;
75887;SDS011;64562;55.662;37.300;2022-12-11T01:35:29;3.30;;;2.30;;
75887;SDS011;64562;55.662;37.300;2022-12-11T01:37:55;3.83;;;2.30;;
75887;SDS011;64562;55.662;37.300;2022-12-11T01:40:23;3.40;;;2.20;;
75887;SDS011;64562;55.662;37.300;2022-12-11T01:42:51;4.85;;;2.28;;
75887;SDS011;64562;55.662;37.300;2022-12-11T01:48:06;4.60;;;2.15;;
75887;SDS011;64562;55.662;37.300;2022-12-11T01:50:35;4.45;;;2.20;;
75887;SDS011;64562;55.662;37.300;2022-12-11T01:53:04;3.15;;;1.80;;
75887;SDS011;64562;55.662;37.300;2022-12-11T01:55:32;4.22;;;2.25;;
75887;SDS011;64562;55.662;37.300;2022-12-11T01:57:59;4.90;;;2.42;;
75887;SDS011;64562;55.662;37.300;2022-12-11T02:00:27;3.63;;;2.42;;
75887;SDS011;64562;55.662;37.300;2022-12-11T02:02:54;2.83;;;2.25;;
75887;SDS011;64562;55.662;37.300;2022-12-11T02:05:22;2.70;;;2.03;;
75887;SDS011;64562;55.662;37.300;2022-12-11T02:07:49;3.05;;;2.33;;
75887;SDS011;64562;55.662;37.300;2022-12-11T02:10:17;3.97;;;2.15;;
75887;SDS011;64562;55.662;37.300;2022-12-11T02:12:50;2.80;;;2.15;;
75887;SDS011;64562;55.662;37.300;2022-12-11T02:15:21;3.42;;;2.28;;
75887;SDS011;64562;55.662;37.300;2022-12-11T02:17:51;3.22;;;2.22;;
75887;SDS011;64562;55.662;37.300;2022-12-11T02:20:20;2.55;;;2.15;;
75887;SDS011;64562;55.662;37.300;2022-12-11T02:25:35;4.07;;;2.13;;
75887;SDS011;64562;55.662;37.300;2022-12-11T02:28:13;3.97;;;2.28;;
75887;SDS011;64562;55.662;37.300;2022-12-11T02:30:41;4.05;;;2.60;;
75887;SDS011;64562;55.662;37.300;2022-12-11T02:33:09;3.95;;;2.25;;
75887;SDS011;64562;55.662;37.300;2022-12-11T02:35:38;3.58;;;2.30;;
75887;SDS011;64562;55.662;37.300;2022-12-11T02:38:07;2.67;;;2.10;;
75887;SDS011;64562;55.662;37.300;2022-12-11T02:40:34;3.22;;;2.00;;
75887;SDS011;64562;55.662;37.300;2022-12-11T02:43:03;3.53;;;2.25;;
75887;SDS011;64562;55.662;37.300;2022-12-11T02:45:33;5.35;;;2.38;;
75887;SDS011;64562;55.662;37.300;2022-12-11T02:48:00;5.65;;;2.58;;
75887;SDS011;64562;55.662;37.300;2022-12-11T02:50:28;4.35;;;2.38;;
75887;SDS011;64562;55.662;37.300;2022-12-11T02:52:55;3.92;;;2.40;;
75887;SDS011;64562;55.662;37.300;2022-12-11T02:55:23;3.47;;;2.25;;
75887;SDS011;64562;55.662;37.300;2022-12-11T02:57:54;4.53;;;2.53;;
75887;SDS011;64562;55.662;37.300;2022-12-11T03:00:22;3.95;;;2.45;;
75887;SDS011;64562;55.662;37.300;2022-12-11T03:02:50;4.15;;;2.20;;
75887;SDS011;64562;55.662;37.300;2022-12-11T03:05:17;3.58;;;2.38;;
75887;SDS011;64562;55.662;37.300;2022-12-11T03:07:43;3.97;;;2.60;;
75887;SDS011;64562;55.662;37.300;2022-12-11T03:10:12;3.75;;;2.28;;
75887;SDS011;64562;55.662;37.300;2022-12-11T03:12:39;3.63;;;2.28;;
75887;SDS011;64562;55.662;37.300;2022-12-11T03:15:08;4.00;;;2.40;;
75887;SDS011;64562;55.662;37.300;2022-12-11T03:17:37;3.95;;;2.30;;
75887;SDS011;64562;55.662;37.300;2022-12-11T03:20:10;3.80;;;2.35;;
75887;SDS011;64562;55.662;37.300;2022-12-11T03:25:05;3.97;;;2.42;;
75887;SDS011;64562;55.662;37.300;2022-12-11T03:27:33;3.88;;;2.40;;
75887;SDS011;64562;55.662;37.300;2022-12-11T03:30:04;4.88;;;2.45;;
75887;SDS011;64562;55.662;37.300;2022-12-11T03:32:33;3.72;;;2.40;;
75887;SDS011;64562;55.662;37.300;2022-12-11T03:35:02;3.55;;;2.22;;
75887;SDS011;64562;55.662;37.300;2022-12-11T03:37:33;4.78;;;2.55;;
75887;SDS011;64562;55.662;37.300;2022-12-11T03:40:02;4.15;;;2.50;;
75887;SDS011;64562;55.662;37.300;2022-12-11T03:42:30;3.45;;;2.30;;
75887;SDS011;64562;55.662;37.300;2022-12-11T03:44:57;3.50;;;2.30;;
75887;SDS011;64562;55.662;37.300;2022-12-11T03:47:24;3.58;;;2.15;;
75887;SDS011;64562;55.662;37.300;2022-12-11T03:49:52;3.38;;;2.15;;
75887;SDS011;64562;55.662;37.300;2022-12-11T03:52:19;4.03;;;2.42;;
75887;SDS011;64562;55.662;37.300;2022-12-11T03:54:48;4.40;;;2.60;;
75887;SDS011;64562;55.662;37.300;2022-12-11T03:57:18;3.15;;;2.15;;
75887;SDS011;64562;55.662;37.300;2022-12-11T03:59:46;4.38;;;1.85;;
75887;SDS011;64562;55.662;37.300;2022-12-11T04:02:13;4.00;;;2.40;;
75887;SDS011;64562;55.662;37.300;2022-12-11T04:04:40;4.90;;;2.53;;
75887;SDS011;64562;55.662;37.300;2022-12-11T04:07:07;4.20;;;2.30;;
75887;SDS011;64562;55.662;37.300;2022-12-11T04:09:33;4.50;;;2.13;;
75887;SDS011;64562;55.662;37.300;2022-12-11T04:12:01;3.22;;;2.00;;
75887;SDS011;64562;55.662;37.300;2022-12-11T04:14:28;4.20;;;2.40;;
75887;SDS011;64562;55.662;37.300;2022-12-11T04:17:12;4.85;;;2.45;;
75887;SDS011;64562;55.662;37.300;2022-12-11T04:19:58;3.53;;;2.30;;
75887;SDS011;64562;55.662;37.300;2022-12-11T04:22:42;3.47;;;2.28;;
75887;SDS011;64562;55.662;37.300;2022-12-11T04:25:26;3.33;;;2.33;;
75887;SDS011;64562;55.662;37.300;2022-12-11T04:27:54;3.85;;;2.20;;
75887;SDS011;64562;55.662;37.300;2022-12-11T04:30:21;4.63;;;2.67;;
75887;SDS011;64562;55.662;37.300;2022-12-11T04:32:48;3.88;;;2.30;;
75887;SDS011;64562;55.662;37.300;2022-12-11T04:35:15;3.53;;;2.33;;
75887;SDS011;64562;55.662;37.300;2022-12-11T04:37:42;4.20;;;2.40;;
75887;SDS011;64562;55.662;37.300;2022-12-11T04:40:10;3.28;;;2.35;;
75887;SDS011;64562;55.662;37.300;2022-12-11T04:42:37;4.15;;;2.08;;
75887;SDS011;64562;55.662;37.300;2022-12-11T04:45:05;3.42;;;2.30;;
75887;SDS011;64562;55.662;37.300;2022-12-11T04:47:33;2.47;;;1.77;;
75887;SDS011;64562;55.662;37.300;2022-12-11T04:50:00;3.78;;;2.30;;
75887;SDS011;64562;55.662;37.300;2022-12-11T04:52:26;3.38;;;1.90;;
75887;SDS011;64562;55.662;37.300;2022-12-11T04:54:53;3.42;;;1.98;;
75887;SDS011;64562;55.662;37.300;2022-12-11T04:57:20;3.63;;;2.15;;
75887;SDS011;64562;55.662;37.300;2022-12-11T04:59:47;3.92;;;2.13;;
75887;SDS011;64562;55.662;37.300;2022-12-11T05:02:15;4.55;;;2.20;;
75887;SDS011;64562;55.662;37.300;2022-12-11T05:04:42;3.42;;;2.20;;
75887;SDS011;64562;55.662;37.300;2022-12-11T05:07:08;3.35;;;2.30;;
75887;SDS011;64562;55.662;37.300;2022-12-11T05:09:35;3.28;;;2.30;;
75887;SDS011;64562;55.662;37.300;2022-12-11T05:12:02;4.25;;;2.47;;
75887;SDS011;64562;55.662;37.300;2022-12-11T05:14:28;3.95;;;2.30;;
75887;SDS011;64562;55.662;37.300;2022-12-11T05:16:56;3.22;;;2.10;;
75887;SDS011;64562;55.662;37.300;2022-12-11T05:19:24;4.82;;;2.22;;
75887;SDS011;64562;55.662;37.300;2022-12-11T05:21:50;3.40;;;2.20;;
75887;SDS011;64562;55.662;37.300;2022-12-11T05:24:17;4.28;;;2.17;;
75887;SDS011;64562;55.662;37.300;2022-12-11T05:26:44;3.90;;;2.15;;
75887;SDS011;64562;55.662;37.300;2022-12-11T05:29:10;3.63;;;2.20;;
75887;SDS011;64562;55.662;37.300;2022-12-11T05:31:37;3.75;;;2.45;;
75887;SDS011;64562;55.662;37.300;2022-12-11T05:34:03;3.97;;;2.30;;
75887;SDS011;64562;55.662;37.300;2022-12-11T05:36:32;4.35;;;2.42;;
75887;SDS011;64562;55.662;37.300;2022-12-11T05:38:59;3.42;;;2.40;;
75887;SDS011;64562;55.662;37.300;2022-12-11T05:41:27;3.72;;;2.47;;
75887;SDS011;64562;55.662;37.300;2022-12-11T05:43:54;3.45;;;2.00;;
75887;SDS011;64562;55.662;37.300;2022-12-11T05:46:21;4.57;;;2.45;;
75887;SDS011;64562;55.662;37.300;2022-12-11T05:48:48;2.97;;;1.85;;
75887;SDS011;64562;55.662;37.300;2022-12-11T05:51:15;3.53;;;2.20;;
75887;SDS011;64562;55.662;37.300;2022-12-11T05:53:44;3.55;;;2.30;;
75887;SDS011;64562;55.662;37.300;2022-12-11T05:56:11;3.53;;;1.90;;
75887;SDS011;64562;55.662;37.300;2022-12-11T05:58:39;3.38;;;2.08;;
75887;SDS011;64562;55.662;37.300;2022-12-11T06:01:06;2.67;;;2.00;;
75887;SDS011;64562;55.662;37.300;2022-12-11T06:03:33;3.30;;;1.98;;
75887;SDS011;64562;55.662;37.300;2022-12-11T06:06:00;4.03;;;2.28;;
75887;SDS011;64562;55.662;37.300;2022-12-11T06:08:26;3.55;;;2.45;;
75887;SDS011;64562;55.662;37.300;2022-12-11T06:10:54;3.92;;;2.70;;
75887;SDS011;64562;55.662;37.300;2022-12-11T06:13:21;3.92;;;2.30;;
75887;SDS011;64562;55.662;37.300;2022-12-11T06:15:48;4.40;;;2.15;;
75887;SDS011;64562;55.662;37.300;2022-12-11T06:18:14;4.78;;;2.30;;
75887;SDS011;64562;55.662;37.300;2022-12-11T06:20:41;4.10;;;2.25;;
75887;SDS011;64562;55.662;37.300;2022-12-11T06:23:08;3.78;;;2.25;;
75887;SDS011;64562;55.662;37.300;2022-12-11T06:25:36;3.50;;;2.30;;
75887;SDS011;64562;55.662;37.300;2022-12-11T06:28:04;4.40;;;2.35;;
75887;SDS011;64562;55.662;37.300;2022-12-11T06:30:31;4.10;;;2.53;;
75887;SDS011;64562;55.662;37.300;2022-12-11T06:32:58;3.78;;;2.42;;
75887;SDS011;64562;55.662;37.300;2022-12-11T06:35:24;4.15;;;2.65;;
75887;SDS011;64562;55.662;37.300;2022-12-11T06:37:51;3.65;;;2.15;;
75887;SDS011;64562;55.662;37.300;2022-12-11T06:40:18;4.22;;;2.40;;
75887;SDS011;64562;55.662;37.300;2022-12-11T06:42:44;3.83;;;2.25;;
75887;SDS011;64562;55.662;37.300;2022-12-11T06:45:13;3.58;;;2.10;;
75887;SDS011;64562;55.662;37.300;2022-12-11T06:47:40;3.10;;;2.00;;
75887;SDS011;64562;55.662;37.300;2022-12-11T06:50:06;3.30;;;2.00;;
75887;SDS011;64562;55.662;37.300;2022-12-11T06:52:33;5.45;;;2.50;;
75887;SDS011;64562;55.662;37.300;2022-12-11T06:55:00;4.82;;;2.80;;
75887;SDS011;64562;55.662;37.300;2022-12-11T06:57:26;4.45;;;2.83;;
75887;SDS011;64562;55.662;37.300;2022-12-11T06:59:53;3.92;;;2.30;;
75887;SDS011;64562;55.662;37.300;2022-12-11T07:02:21;5.35;;;2.47;;
75887;SDS011;64562;55.662;37.300;2022-12-11T07:04:47;4.93;;;2.63;;
75887;SDS011;64562;55.662;37.300;2022-12-11T07:07:14;3.10;;;2.40;;
75887;SDS011;64562;55.662;37.300;2022-12-11T07:09:41;5.30;;;2.50;;
75887;SDS011;64562;55.662;37.300;2022-12-11T07:12:08;4.70;;;2.38;;
75887;SDS011;64562;55.662;37.300;2022-12-11T07:14:35;3.67;;;2.45;;
75887;SDS011;64562;55.662;37.300;2022-12-11T07:17:01;4.30;;;2.50;;
75887;SDS011;64562;55.662;37.300;2022-12-11T07:19:29;3.67;;;2.20;;
75887;SDS011;64562;55.662;37.300;2022-12-11T07:21:56;4.60;;;2.65;;
75887;SDS011;64562;55.662;37.300;2022-12-11T07:24:23;5.03;;;2.63;;
75887;SDS011;64562;55.662;37.300;2022-12-11T07:26:49;5.40;;;3.03;;
75887;SDS011;64562;55.662;37.300;2022-12-11T07:29:17;5.38;;;3.00;;
75887;SDS011;64562;55.662;37.300;2022-12-11T07:31:43;3.80;;;2.13;;
75887;SDS011;64562;55.662;37.300;2022-12-11T07:34:10;3.70;;;2.20;;
75887;SDS011;64562;55.662;37.300;2022-12-11T07:36:39;4.32;;;2.40;;
75887;SDS011;64562;55.662;37.300;2022-12-11T07:39:05;5.50;;;2.40;;
75887;SDS011;64562;55.662;37.300;2022-12-11T07:41:33;5.20;;;2.90;;
75887;SDS011;64562;55.662;37.300;2022-12-11T07:43:59;4.57;;;2.70;;
75887;SDS011;64562;55.662;37.300;2022-12-11T07:46:27;3.97;;;2.25;;
75887;SDS011;64562;55.662;37.300;2022-12-11T07:48:53;4.32;;;2.53;;
75887;SDS011;64562;55.662;37.300;2022-12-11T07:51:21;5.03;;;2.78;;
75887;SDS011;64562;55.662;37.300;2022-12-11T07:53:52;4.45;;;2.40;;
75887;SDS011;64562;55.662;37.300;2022-12-11T07:56:19;4.90;;;2.72;;
75887;SDS011;64562;55.662;37.300;2022-12-11T07:58:45;4.55;;;2.85;;
75887;SDS011;64562;55.662;37.300;2022-12-11T08:01:13;3.65;;;2.53;;
75887;SDS011;64562;55.662;37.300;2022-12-11T08:03:40;5.22;;;2.80;;
75887;SDS011;64562;55.662;37.300;2022-12-11T08:06:07;5.95;;;2.90;;
75887;SDS011;64562;55.662;37.300;2022-12-11T08:08:33;4.70;;;2.63;;
75887;SDS011;64562;55.662;37.300;2022-12-11T08:11:02;3.40;;;2.38;;
75887;SDS011;64562;55.662;37.300;2022-12-11T08:13:28;4.15;;;2.60;;
75887;SDS011;64562;55.662;37.300;2022-12-11T08:15:55;4.80;;;2.85;;
75887;SDS011;64562;55.662;37.300;2022-12-11T08:18:22;6.15;;;3.33;;
75887;SDS011;64562;55.662;37.300;2022-12-11T08:20:48;4.85;;;2.63;;
75887;SDS011;64562;55.662;37.300;2022-12-11T08:23:15;4.00;;;2.55;;
75887;SDS011;64562;55.662;37.300;2022-12-11T08:25:42;5.70;;;3.65;;
75887;SDS011;64562;55.662;37.300;2022-12-11T08:28:10;5.35;;;3.08;;
75887;SDS011;64562;55.662;37.300;2022-12-11T08:30:37;5.05;;;2.72;;
75887;SDS011;64562;55.662;37.300;2022-12-11T08:33:04;5.55;;;2.90;;
75887;SDS011;64562;55.662;37.300;2022-12-11T08:35:30;5.45;;;3.03;;
75887;SDS011;64562;55.662;37.300;2022-12-11T08:37:57;6.13;;;2.92;;
75887;SDS011;64562;55.662;37.300;2022-12-11T08:40:24;4.72;;;2.88;;
75887;SDS011;64562;55.662;37.300;2022-12-11T08:42:50;4.45;;;2.40;;
75887;SDS011;64562;55.662;37.300;2022-12-11T08:45:18;5.07;;;2.83;;
75887;SDS011;64562;55.662;37.300;2022-12-11T08:47:45;5.88;;;2.95;;
75887;SDS011;64562;55.662;37.300;2022-12-11T08:50:11;5.68;;;2.90;;
75887;SDS011;64562;55.662;37.300;2022-12-11T08:52:38;5.32;;;3.25;;
75887;SDS011;64562;55.662;37.300;2022-12-11T08:55:05;4.30;;;2.53;;
75887;SDS011;64562;55.662;37.300;2022-12-11T08:57:32;6.25;;;3.30;;
75887;SDS011;64562;55.662;37.300;2022-12-11T08:59:58;5.53;;;3.10;;
75887;SDS011;64562;55.662;37.300;2022-12-11T09:02:26;4.38;;;2.70;;
75887;SDS011;64562;55.662;37.300;2022-12-11T09:04:53;5.93;;;3.03;;
75887;SDS011;64562;55.662;37.300;2022-12-11T09:07:19;5.25;;;2.88;;
75887;SDS011;64562;55.662;37.300;2022-12-11T09:09:46;5.95;;;3.38;;
75887;SDS011;64562;55.662;37.300;2022-12-11T09:12:12;4.82;;;3.17;;
75887;SDS011;64562;55.662;37.300;2022-12-11T09:14:39;5.20;;;2.97;;
75887;SDS011;64562;55.662;37.300;2022-12-11T09:17:06;5.00;;;3.08;;
75887;SDS011;64562;55.662;37.300;2022-12-11T09:19:34;5.07;;;2.90;;
75887;SDS011;64562;55.662;37.300;2022-12-11T09:22:01;5.78;;;3.40;;
75887;SDS011;64562;55.662;37.300;2022-12-11T09:24:27;7.07;;;3.45;;
75887;SDS011;64562;55.662;37.300;2022-12-11T09:26:54;4.60;;;2.92;;
75887;SDS011;64562;55.662;37.300;2022-12-11T09:29:20;4.85;;;2.80;;
75887;SDS011;64562;55.662;37.300;2022-12-11T09:31:47;4.55;;;2.55;;
75887;SDS011;64562;55.662;37.300;2022-12-11T09:34:14;4.25;;;2.83;;
75887;SDS011;64562;55.662;37.300;2022-12-11T09:36:42;6.10;;;3.00;;
75887;SDS011;64562;55.662;37.300;2022-12-11T09:39:09;3.78;;;2.72;;
75887;SDS011;64562;55.662;37.300;2022-12-11T09:41:45;5.43;;;3.13;;
75887;SDS011;64562;55.662;37.300;2022-12-11T09:44:18;4.65;;;2.60;;
75887;SDS011;64562;55.662;37.300;2022-12-11T09:46:48;5.85;;;3.03;;
75887;SDS011;64562;55.662;37.300;2022-12-11T09:49:22;10.13;;;3.17;;
75887;SDS011;64562;55.662;37.300;2022-12-11T09:51:53;6.18;;;3.22;;
75887;SDS011;64562;55.662;37.300;2022-12-11T09:54:21;6.88;;;3.15;;
75887;SDS011;64562;55.662;37.300;2022-12-11T09:56:49;10.20;;;4.35;;
75887;SDS011;64562;55.662;37.300;2022-12-11T09:59:19;10.57;;;4.35;;
75887;SDS011;64562;55.662;37.300;2022-12-11T10:01:49;13.82;;;4.05;;
75887;SDS011;64562;55.662;37.300;2022-12-11T10:04:21;10.95;;;4.70;;
75887;SDS011;64562;55.662;37.300;2022-12-11T10:06:56;12.68;;;4.15;;
75887;SDS011;64562;55.662;37.300;2022-12-11T10:09:24;8.50;;;3.90;;
75887;SDS011;64562;55.662;37.300;2022-12-11T10:11:57;6.93;;;3.72;;
75887;SDS011;64562;55.662;37.300;2022-12-11T10:14:29;10.60;;;4.70;;
75887;SDS011;64562;55.662;37.300;2022-12-11T10:16:58;10.02;;;4.25;;
75887;SDS011;64562;55.662;37.300;2022-12-11T10:19:28;7.45;;;4.25;;
75887;SDS011;64562;55.662;37.300;2022-12-11T10:21:56;6.82;;;4.10;;
75887;SDS011;64562;55.662;37.300;2022-12-11T10:24:27;7.65;;;4.15;;
75887;SDS011;64562;55.662;37.300;2022-12-11T10:26:55;14.07;;;3.50;;
75887;SDS011;64562;55.662;37.300;2022-12-11T10:29:23;8.63;;;3.92;;
75887;SDS011;64562;55.662;37.300;2022-12-11T10:31:51;8.68;;;4.28;;
75887;SDS011;64562;55.662;37.300;2022-12-11T10:34:21;10.13;;;5.40;;
75887;SDS011;64562;55.662;37.300;2022-12-11T10:36:51;7.38;;;4.72;;
75887;SDS011;64562;55.662;37.300;2022-12-11T10:39:21;9.15;;;4.05;;
75887;SDS011;64562;55.662;37.300;2022-12-11T10:41:48;7.85;;;4.00;;
75887;SDS011;64562;55.662;37.300;2022-12-11T10:44:16;7.53;;;3.90;;
75887;SDS011;64562;55.662;37.300;2022-12-11T10:46:43;8.48;;;4.25;;
75887;SDS011;64562;55.662;37.300;2022-12-11T10:49:19;7.80;;;3.97;;
75887;SDS011;64562;55.662;37.300;2022-12-11T10:51:46;11.10;;;4.25;;
75887;SDS011;64562;55.662;37.300;2022-12-11T10:54:16;9.02;;;4.00;;
75887;SDS011;64562;55.662;37.300;2022-12-11T10:56:46;7.55;;;3.90;;
75887;SDS011;64562;55.662;37.300;2022-12-11T10:59:14;8.45;;;3.95;;
75887;SDS011;64562;55.662;37.300;2022-12-11T11:01:46;8.45;;;3.80;;
75887;SDS011;64562;55.662;37.300;2022-12-11T11:04:13;8.60;;;4.57;;
75887;SDS011;64562;55.662;37.300;2022-12-11T11:06:40;7.82;;;4.10;;
75887;SDS011;64562;55.662;37.300;2022-12-11T11:09:21;6.40;;;3.80;;
75887;SDS011;64562;55.662;37.300;2022-12-11T11:11:53;7.78;;;4.07;;
75887;SDS011;64562;55.662;37.300;2022-12-11T11:14:20;6.25;;;3.95;;
75887;SDS011;64562;55.662;37.300;2022-12-11T11:16:47;7.00;;;4.00;;
75887;SDS011;64562;55.662;37.300;2022-12-11T11:19:16;7.05;;;4.00;;
75887;SDS011;64562;55.662;37.300;2022-12-11T11:21:46;5.75;;;4.00;;
75887;SDS011;64562;55.662;37.300;2022-12-11T11:24:18;5.43;;;4.10;;
75887;SDS011;64562;55.662;37.300;2022-12-11T11:26:49;6.05;;;4.30;;
75887;SDS011;64562;55.662;37.300;2022-12-11T11:29:21;7.47;;;3.88;;
75887;SDS011;64562;55.662;37.300;2022-12-11T11:31:49;5.93;;;3.85;;
75887;SDS011;64562;55.662;37.300;2022-12-11T11:34:17;7.15;;;4.00;;
75887;SDS011;64562;55.662;37.300;2022-12-11T11:36:53;6.18;;;3.80;;
75887;SDS011;64562;55.662;37.300;2022-12-11T11:39:22;5.82;;;4.00;;
75887;SDS011;64562;55.662;37.300;2022-12-11T11:41:54;6.63;;;3.97;;
75887;SDS011;64562;55.662;37.300;2022-12-11T11:44:25;7.45;;;3.80;;
75887;SDS011;64562;55.662;37.300;2022-12-11T11:46:55;7.10;;;4.07;;
75887;SDS011;64562;55.662;37.300;2022-12-11T11:49:23;8.07;;;4.18;;
75887;SDS011;64562;55.662;37.300;2022-12-11T11:51:54;5.35;;;3.55;;
75887;SDS011;64562;55.662;37.300;2022-12-11T11:54:27;5.75;;;4.07;;
75887;SDS011;64562;55.662;37.300;2022-12-11T11:56:55;7.38;;;3.90;;
75887;SDS011;64562;55.662;37.300;2022-12-11T11:59:24;6.40;;;4.20;;
75887;SDS011;64562;55.662;37.300;2022-12-11T12:01:53;6.47;;;4.22;;
75887;SDS011;64562;55.662;37.300;2022-12-11T12:04:20;5.88;;;3.78;;
75887;SDS011;64562;55.662;37.300;2022-12-11T12:07:01;6.57;;;3.70;;
75887;SDS011;64562;55.662;37.300;2022-12-11T12:09:33;6.65;;;4.00;;
75887;SDS011;64562;55.662;37.300;2022-12-11T12:12:06;6.38;;;4.00;;
75887;SDS011;64562;55.662;37.300;2022-12-11T12:14:37;8.02;;;4.30;;
75887;SDS011;64562;55.662;37.300;2022-12-11T12:17:11;9.30;;;4.50;;
75887;SDS011;64562;55.662;37.300;2022-12-11T12:19:42;5.78;;;3.92;;
75887;SDS011;64562;55.662;37.300;2022-12-11T12:22:13;6.63;;;4.15;;
75887;SDS011;64562;55.662;37.300;2022-12-11T12:24:45;5.95;;;3.58;;
75887;SDS011;64562;55.662;37.300;2022-12-11T12:27:16;7.03;;;3.67;;
75887;SDS011;64562;55.662;37.300;2022-12-11T12:29:46;6.45;;;3.90;;
75887;SDS011;64562;55.662;37.300;2022-12-11T12:32:19;6.18;;;3.90;;
75887;SDS011;64562;55.662;37.300;2022-12-11T12:35:02;5.88;;;3.90;;
75887;SDS011;64562;55.662;37.300;2022-12-11T12:37:36;7.00;;;3.90;;
75887;SDS011;64562;55.662;37.300;2022-12-11T12:40:11;8.60;;;4.15;;
75887;SDS011;64562;55.662;37.300;2022-12-11T12:42:41;6.72;;;3.63;;
75887;SDS011;64562;55.662;37.300;2022-12-11T12:45:16;6.80;;;3.53;;
75887;SDS011;64562;55.662;37.300;2022-12-11T12:47:44;7.50;;;3.83;;
75887;SDS011;64562;55.662;37.300;2022-12-11T12:50:12;5.40;;;3.30;;
75887;SDS011;64562;55.662;37.300;2022-12-11T12:52:40;5.00;;;3.33;;
75887;SDS011;64562;55.662;37.300;2022-12-11T12:55:24;4.38;;;3.28;;
75887;SDS011;64562;55.662;37.300;2022-12-11T12:57:53;6.40;;;3.30;;
75887;SDS011;64562;55.662;37.300;2022-12-11T13:03:13;7.53;;;4.05;;
75887;SDS011;64562;55.662;37.300;2022-12-11T13:05:41;6.32;;;3.58;;
75887;SDS011;64562;55.662;37.300;2022-12-11T13:08:08;7.45;;;3.63;;
75887;SDS011;64562;55.662;37.300;2022-12-11T13:10:36;5.10;;;3.13;;
75887;SDS011;64562;55.662;37.300;2022-12-11T13:13:04;5.32;;;3.30;;
75887;SDS011;64562;55.662;37.300;2022-12-11T13:15:32;5.35;;;3.35;;
75887;SDS011;64562;55.662;37.300;2022-12-11T13:18:00;5.57;;;3.45;;
75887;SDS011;64562;55.662;37.300;2022-12-11T13:20:29;5.25;;;3.70;;
75887;SDS011;64562;55.662;37.300;2022-12-11T13:23:16;4.60;;;3.22;;
75887;SDS011;64562;55.662;37.300;2022-12-11T13:25:50;5.38;;;3.38;;
75887;SDS011;64562;55.662;37.300;2022-12-11T13:31:06;4.80;;;3.20;;
75887;SDS011;64562;55.662;37.300;2022-12-11T13:33:37;4.85;;;2.97;;
75887;SDS011;64562;55.662;37.300;2022-12-11T13:36:20;4.60;;;2.90;;
75887;SDS011;64562;55.662;37.300;2022-12-11T13:38:49;5.57;;;3.13;;
75887;SDS011;64562;55.662;37.300;2022-12-11T13:41:17;5.10;;;3.10;;
75887;SDS011;64562;55.662;37.300;2022-12-11T13:43:45;7.30;;;3.40;;
75887;SDS011;64562;55.662;37.300;2022-12-11T13:46:12;5.93;;;3.30;;
75887;SDS011;64562;55.662;37.300;2022-12-11T13:48:43;5.32;;;3.22;;
75887;SDS011;64562;55.662;37.300;2022-12-11T13:51:13;3.80;;;3.00;;
75887;SDS011;64562;55.662;37.300;2022-12-11T13:53:41;4.50;;;2.63;;
75887;SDS011;64562;55.662;37.300;2022-12-11T13:56:12;4.30;;;2.85;;
75887;SDS011;64562;55.662;37.300;2022-12-11T13:58:41;7.28;;;2.78;;
75887;SDS011;64562;55.662;37.300;2022-12-11T14:01:08;6.03;;;2.60;;
75887;SDS011;64562;55.662;37.300;2022-12-11T14:03:37;5.43;;;2.35;;
75887;SDS011;64562;55.662;37.300;2022-12-11T14:06:07;3.47;;;2.30;;
75887;SDS011;64562;55.662;37.300;2022-12-11T14:08:36;3.75;;;2.83;;
75887;SDS011;64562;55.662;37.300;2022-12-11T14:11:04;5.15;;;2.70;;
75887;SDS011;64562;55.662;37.300;2022-12-11T14:13:32;3.67;;;2.67;;
75887;SDS011;64562;55.662;37.300;2022-12-11T14:15:59;4.28;;;2.60;;
75887;SDS011;64562;55.662;37.300;2022-12-11T14:18:27;4.45;;;2.70;;
75887;SDS011;64562;55.662;37.300;2022-12-11T14:20:55;4.78;;;3.00;;
75887;SDS011;64562;55.662;37.300;2022-12-11T14:23:23;3.83;;;2.67;;
75887;SDS011;64562;55.662;37.300;2022-12-11T14:25:52;3.40;;;2.40;;
75887;SDS011;64562;55.662;37.300;2022-12-11T14:28:19;3.30;;;2.28;;
75887;SDS011;64562;55.662;37.300;2022-12-11T14:30:48;3.97;;;2.17;;
75887;SDS011;64562;55.662;37.300;2022-12-11T14:33:15;5.32;;;2.42;;
75887;SDS011;64562;55.662;37.300;2022-12-11T14:35:43;6.75;;;3.00;;
75887;SDS011;64562;55.662;37.300;2022-12-11T14:38:12;5.10;;;2.47;;
75887;SDS011;64562;55.662;37.300;2022-12-11T14:40:42;3.67;;;2.50;;
75887;SDS011;64562;55.662;37.300;2022-12-11T14:43:13;7.20;;;2.30;;
75887;SDS011;64562;55.662;37.300;2022-12-11T14:45:41;3.17;;;2.30;;
75887;SDS011;64562;55.662;37.300;2022-12-11T14:48:11;2.83;;;2.10;;
75887;SDS011;64562;55.662;37.300;2022-12-11T14:50:40;3.38;;;2.53;;
75887;SDS011;64562;55.662;37.300;2022-12-11T14:53:11;3.03;;;2.17;;
75887;SDS011;64562;55.662;37.300;2022-12-11T14:55:39;3.03;;;2.05;;